createdAt,value
2019-06-27T00:00:17.576Z,59.38
2019-06-27T00:01:17.526Z,59.48
2019-06-27T00:02:17.522Z,58.88
2019-06-27T00:03:17.500Z,58.01
2019-06-27T00:04:17.494Z,58.81
2019-06-27T00:05:17.477Z,58.71
2019-06-27T00:06:17.483Z,58.41
2019-06-27T00:07:17.454Z,58.31
2019-06-27T00:08:17.457Z,58.14
2019-06-27T00:09:17.436Z,58.44
2019-06-27T00:10:17.434Z,58.71
2019-06-27T00:11:17.440Z,58.61
2019-06-27T00:12:17.405Z,58.61
2019-06-27T00:13:17.406Z,58.61
2019-06-27T00:14:17.441Z,58.81
2019-06-27T00:15:17.383Z,58.81
2019-06-27T00:16:17.421Z,58.81
2019-06-27T00:17:17.350Z,58.71
2019-06-27T00:18:17.335Z,59.01
2019-06-27T00:19:17.342Z,58.81
2019-06-27T00:20:17.314Z,59.31
2019-06-27T00:21:17.322Z,59.01
2019-06-27T00:22:17.327Z,59.41
2019-06-27T00:23:17.285Z,59.70
2019-06-27T00:24:17.275Z,59.83
2019-06-27T00:25:17.285Z,59.94
2019-06-27T00:26:17.254Z,59.96
2019-06-27T00:27:17.263Z,59.17
2019-06-27T00:28:17.229Z,60.16
2019-06-27T00:29:17.228Z,59.39
2019-06-27T00:30:17.244Z,59.30
2019-06-27T00:31:17.221Z,60.19
2019-06-27T00:32:17.231Z,59.59
2019-06-27T00:33:17.204Z,59.39
2019-06-27T00:34:17.168Z,59.19
2019-06-27T00:35:17.156Z,60.09
2019-06-27T00:36:17.153Z,59.30
2019-06-27T00:37:17.484Z,59.52
2019-06-27T00:38:17.143Z,59.72
2019-06-27T00:39:17.112Z,59.22
2019-06-27T00:40:17.107Z,59.32
2019-06-27T00:41:17.096Z,59.42
2019-06-27T00:42:17.092Z,59.82
2019-06-27T00:43:17.102Z,59.42
2019-06-27T00:44:17.069Z,60.12
2019-06-27T00:45:17.047Z,60.12
2019-06-27T00:46:17.060Z,59.72
2019-06-27T00:47:17.028Z,59.32
2019-06-27T00:48:17.035Z,59.62
2019-06-27T00:49:17.005Z,59.12
2019-06-27T00:50:17.001Z,59.62
2019-06-27T00:51:16.983Z,59.32
2019-06-27T00:52:16.976Z,59.05
2019-06-27T00:53:17.020Z,59.75
2019-06-27T00:54:16.965Z,59.25
2019-06-27T00:55:16.951Z,59.55
2019-06-27T00:56:16.947Z,59.15
2019-06-27T00:57:16.919Z,59.65
2019-06-27T00:58:16.906Z,59.95
2019-06-27T00:59:16.927Z,59.25
2019-06-27T01:00:16.885Z,59.25
2019-06-27T01:01:16.883Z,59.28
2019-06-27T01:02:16.876Z,59.58
2019-06-27T01:03:16.853Z,59.98
2019-06-27T01:04:16.865Z,60.00
2019-06-27T01:05:16.842Z,60.31
2019-06-27T01:06:16.824Z,60.53
2019-06-27T01:07:16.823Z,60.63
2019-06-27T01:08:16.819Z,60.74
2019-06-27T01:09:16.806Z,61.33
2019-06-27T01:10:16.780Z,61.04
2019-06-27T01:11:16.782Z,60.63
2019-06-27T01:12:16.756Z,60.74
2019-06-27T01:13:16.764Z,60.50
2019-06-27T01:14:16.797Z,60.11
2019-06-27T01:15:16.724Z,60.80
2019-06-27T01:16:16.718Z,60.14
2019-06-27T01:17:16.723Z,60.03
2019-06-27T01:18:16.694Z,60.44
2019-06-27T01:19:16.689Z,60.53
2019-06-27T01:20:16.708Z,60.03
2019-06-27T01:21:16.658Z,60.53
2019-06-27T01:22:16.654Z,59.94
2019-06-27T01:23:16.645Z,60.53
2019-06-27T01:24:16.636Z,60.77
2019-06-27T01:25:16.643Z,61.16
2019-06-27T01:26:16.607Z,61.46
2019-06-27T01:27:29.570Z,61.49
2019-06-27T01:28:16.599Z,61.16
2019-06-27T01:29:16.579Z,61.69
2019-06-27T01:30:16.613Z,61.59
2019-06-27T01:31:16.550Z,62.39
2019-06-27T01:32:16.551Z,62.89
2019-06-27T01:33:16.528Z,62.89
2019-06-27T01:34:16.532Z,62.59
2019-06-27T01:35:16.541Z,62.89
2019-06-27T01:36:16.516Z,63.42
2019-06-27T01:37:16.487Z,63.72
2019-06-27T01:38:16.474Z,63.32
2019-06-27T01:39:16.466Z,64.03
2019-06-27T01:40:16.474Z,63.82
2019-06-27T01:41:16.481Z,63.42
2019-06-27T01:42:16.444Z,63.85
2019-06-27T01:43:16.424Z,64.25
2019-06-27T01:44:16.409Z,63.72
2019-06-27T01:45:16.407Z,63.75
2019-06-27T01:46:16.432Z,64.03
2019-06-27T01:47:16.386Z,64.42
2019-06-27T01:48:16.424Z,64.15
2019-06-27T01:49:16.367Z,64.15
2019-06-27T01:50:16.348Z,65.05
2019-06-27T01:51:16.349Z,64.55
2019-06-27T01:52:16.355Z,64.86
2019-06-27T01:53:16.326Z,64.25
2019-06-27T01:54:16.300Z,64.65
2019-06-27T01:55:16.298Z,64.98
2019-06-27T01:56:16.279Z,65.45
2019-06-27T01:57:16.291Z,65.19
2019-06-27T01:58:16.266Z,64.62
2019-06-27T01:59:16.254Z,64.92
2019-06-27T02:00:16.241Z,66.12
2019-06-27T02:01:16.225Z,65.52
2019-06-27T02:02:16.282Z,65.85
2019-06-27T02:03:16.222Z,65.75
2019-06-27T02:04:16.195Z,65.75
2019-06-27T02:05:16.194Z,66.25
2019-06-27T02:06:16.264Z,65.65
2019-06-27T02:07:16.164Z,65.75
2019-06-27T02:08:16.182Z,66.48
2019-06-27T02:09:16.164Z,66.18
2019-06-27T02:10:16.140Z,66.68
2019-06-27T02:11:16.130Z,66.88
2019-06-27T02:12:16.108Z,66.78
2019-06-27T02:13:16.115Z,66.78
2019-06-27T02:14:16.094Z,66.88
2019-06-27T02:15:16.073Z,66.78
2019-06-27T02:16:16.076Z,67.22
2019-06-27T02:17:16.051Z,67.38
2019-06-27T02:18:16.090Z,67.32
2019-06-27T02:19:16.030Z,67.02
2019-06-27T02:20:16.033Z,67.65
2019-06-27T02:21:16.009Z,67.85
2019-06-27T02:22:16.005Z,68.25
2019-06-27T02:23:16.209Z,67.85
2019-06-27T02:24:15.996Z,68.38
2019-06-27T02:25:15.967Z,68.29
2019-06-27T02:26:15.968Z,68.29
2019-06-27T02:27:15.949Z,68.18
2019-06-27T02:28:15.942Z,68.79
2019-06-27T02:29:15.962Z,68.92
2019-06-27T02:30:15.910Z,69.32
2019-06-27T02:31:15.906Z,69.29
2019-06-27T02:32:15.903Z,69.32
2019-06-27T02:33:15.891Z,69.32
2019-06-27T02:34:15.903Z,69.72
2019-06-27T02:35:15.860Z,68.99
2019-06-27T02:36:15.853Z,68.88
2019-06-27T02:37:15.846Z,68.68
2019-06-27T02:38:15.828Z,68.49
2019-06-27T02:39:15.872Z,68.88
2019-06-27T02:40:15.804Z,68.49
2019-06-27T02:41:15.801Z,68.92
2019-06-27T02:42:15.781Z,69.12
2019-06-27T02:43:15.791Z,69.52
2019-06-27T02:44:15.766Z,69.52
2019-06-27T02:45:15.774Z,69.22
2019-06-27T02:46:15.740Z,69.72
2019-06-27T02:47:15.729Z,69.72
2019-06-27T02:48:15.717Z,69.32
2019-06-27T02:49:15.714Z,69.52
2019-06-27T02:50:15.717Z,70.36
2019-06-27T02:51:15.705Z,70.36
2019-06-27T02:52:15.675Z,70.56
2019-06-27T02:53:15.664Z,70.76
2019-06-27T02:54:15.659Z,71.09
2019-06-27T02:55:15.678Z,70.96
2019-06-27T02:56:15.647Z,70.36
2019-06-27T02:57:15.640Z,70.46
2019-06-27T02:58:29.965Z,70.26
2019-06-27T02:59:15.601Z,70.36
2019-06-27T03:00:15.633Z,70.56
2019-06-27T03:01:15.590Z,70.86
2019-06-27T03:02:15.585Z,70.79
2019-06-27T03:03:15.560Z,70.70
2019-06-27T03:04:15.553Z,71.09
2019-06-27T03:05:15.574Z,70.79
2019-06-27T03:06:15.539Z,71.03
2019-06-27T03:07:15.524Z,72.03
2019-06-27T03:08:15.517Z,71.80
2019-06-27T03:09:15.520Z,71.50
2019-06-27T03:10:15.730Z,71.94
2019-06-27T03:11:15.477Z,71.73
2019-06-27T03:12:15.474Z,71.73
2019-06-27T03:13:15.457Z,71.53
2019-06-27T03:14:15.462Z,71.63
2019-06-27T03:15:15.523Z,71.73
2019-06-27T03:16:15.420Z,71.73
2019-06-27T03:17:15.409Z,72.10
2019-06-27T03:18:15.406Z,70.70
2019-06-27T03:19:15.411Z,70.89
2019-06-27T03:20:15.393Z,71.70
2019-06-27T03:21:15.365Z,71.80
2019-06-27T03:22:15.350Z,71.50
2019-06-27T03:23:15.363Z,71.30
2019-06-27T03:24:15.381Z,71.94
2019-06-27T03:25:15.327Z,71.63
2019-06-27T03:26:15.311Z,71.83
2019-06-27T03:27:15.297Z,71.63
2019-06-27T03:28:15.286Z,71.80
2019-06-27T03:29:20.042Z,71.30
2019-06-27T03:30:16.306Z,71.30
2019-06-27T03:31:15.265Z,71.63
2019-06-27T03:32:15.279Z,72.14
2019-06-27T03:33:15.240Z,72.00
2019-06-27T03:34:15.224Z,71.20
2019-06-27T03:35:15.241Z,71.50
2019-06-27T03:36:15.233Z,71.83
2019-06-27T03:37:15.205Z,71.94
2019-06-27T03:38:15.211Z,71.40
2019-06-27T03:39:15.198Z,71.00
2019-06-27T03:40:15.176Z,71.33
2019-06-27T03:41:15.170Z,70.66
2019-06-27T03:42:15.140Z,71.56
2019-06-27T03:43:15.131Z,71.47
2019-06-27T03:44:15.156Z,72.00
2019-06-27T03:45:16.251Z,72.20
2019-06-27T03:46:15.102Z,72.14
2019-06-27T03:47:15.096Z,71.53
2019-06-27T03:48:15.075Z,71.64
2019-06-27T03:49:15.093Z,71.13
2019-06-27T03:50:15.049Z,71.73
2019-06-27T03:51:15.038Z,72.58
2019-06-27T03:52:15.047Z,72.38
2019-06-27T03:53:15.029Z,72.34
2019-06-27T03:54:15.054Z,72.34
2019-06-27T03:55:14.993Z,72.07
2019-06-27T03:56:14.994Z,71.73
2019-06-27T03:57:14.976Z,72.24
2019-06-27T03:58:14.977Z,70.97
2019-06-27T03:59:14.973Z,71.13
2019-06-27T04:00:14.970Z,71.64
2019-06-27T04:01:14.929Z,71.53
2019-06-27T04:02:14.934Z,71.33
2019-06-27T04:03:14.917Z,71.23
2019-06-27T04:04:14.905Z,71.73
2019-06-27T04:05:14.948Z,71.77
2019-06-27T04:06:14.899Z,71.57
2019-06-27T04:07:14.863Z,71.64
2019-06-27T04:08:14.851Z,71.44
2019-06-27T04:09:14.854Z,71.44
2019-06-27T04:10:17.213Z,70.93
2019-06-27T04:11:14.843Z,71.13
2019-06-27T04:12:14.808Z,70.93
2019-06-27T04:13:14.802Z,70.93
2019-06-27T04:14:14.786Z,70.70
2019-06-27T04:15:14.789Z,70.59
2019-06-27T04:16:14.811Z,70.39
2019-06-27T04:17:14.763Z,71.00
2019-06-27T04:18:14.748Z,70.50
2019-06-27T04:19:14.741Z,69.65
2019-06-27T04:20:14.728Z,69.65
2019-06-27T04:21:14.739Z,69.25
2019-06-27T04:22:17.634Z,69.12
2019-06-27T04:23:14.704Z,69.02
2019-06-27T04:24:14.780Z,68.44
2019-06-27T04:25:14.666Z,68.31
2019-06-27T04:26:14.663Z,68.41
2019-06-27T04:27:14.696Z,68.44
2019-06-27T04:28:14.666Z,68.71
2019-06-27T04:29:31.950Z,67.71
2019-06-27T04:30:14.619Z,67.71
2019-06-27T04:31:14.604Z,67.91
2019-06-27T04:32:14.612Z,67.61
2019-06-27T04:33:14.616Z,68.24
2019-06-27T04:34:19.385Z,68.04
2019-06-27T04:35:14.601Z,67.94
2019-06-27T04:36:14.582Z,67.84
2019-06-27T04:37:14.544Z,67.94
2019-06-27T04:38:14.552Z,67.74
2019-06-27T04:39:14.535Z,68.04
2019-06-27T04:40:14.519Z,68.08
2019-06-27T04:41:14.497Z,68.48
2019-06-27T04:42:14.492Z,68.18
2019-06-27T04:43:14.537Z,68.31
2019-06-27T04:44:14.465Z,68.21
2019-06-27T04:45:14.487Z,68.81
2019-06-27T04:46:14.452Z,68.61
2019-06-27T04:47:14.441Z,69.18
2019-06-27T04:48:14.418Z,67.84
2019-06-27T04:49:14.445Z,67.54
2019-06-27T04:50:14.400Z,66.63
2019-06-27T04:51:14.398Z,67.54
2019-06-27T04:52:14.373Z,65.22
2019-06-27T04:53:14.364Z,65.80
2019-06-27T04:54:14.376Z,65.59
2019-06-27T04:55:14.351Z,65.19
2019-06-27T04:56:14.329Z,65.53
2019-06-27T04:57:14.402Z,65.93
2019-06-27T04:58:14.319Z,66.23
2019-06-27T04:59:14.339Z,66.33
2019-06-27T05:00:14.290Z,66.10
2019-06-27T05:01:14.289Z,65.50
2019-06-27T05:02:14.267Z,65.67
2019-06-27T05:03:14.264Z,64.66
2019-06-27T05:04:14.275Z,64.26
2019-06-27T05:05:14.244Z,65.36
2019-06-27T05:06:14.223Z,65.36
2019-06-27T05:07:14.229Z,64.96
2019-06-27T05:08:14.991Z,65.26
2019-06-27T05:09:14.245Z,65.06
2019-06-27T05:10:14.191Z,65.47
2019-06-27T05:11:14.168Z,64.76
2019-06-27T05:12:14.163Z,64.66
2019-06-27T05:13:14.163Z,65.30
2019-06-27T05:14:14.166Z,65.90
2019-06-27T05:15:14.156Z,65.80
2019-06-27T05:16:14.113Z,65.50
2019-06-27T05:17:14.104Z,65.26
2019-06-27T05:18:14.099Z,65.16
2019-06-27T05:19:14.090Z,64.46
2019-06-27T05:20:14.100Z,63.96
2019-06-27T05:21:14.062Z,63.85
2019-06-27T05:22:14.053Z,64.46
2019-06-27T05:23:14.045Z,63.85
2019-06-27T05:24:14.038Z,64.46
2019-06-27T05:25:14.050Z,64.06
2019-06-27T05:26:14.037Z,63.96
2019-06-27T05:27:13.994Z,63.76
2019-06-27T05:28:13.995Z,64.03
2019-06-27T05:29:13.987Z,63.62
2019-06-27T05:30:14.022Z,63.32
2019-06-27T05:31:13.961Z,63.42
2019-06-27T05:32:13.960Z,63.76
2019-06-27T05:33:13.930Z,63.85
2019-06-27T05:34:13.921Z,63.65
2019-06-27T05:35:13.917Z,64.26
2019-06-27T05:36:13.926Z,64.16
2019-06-27T05:37:13.916Z,63.42
2019-06-27T05:38:13.890Z,63.32
2019-06-27T05:39:13.866Z,62.45
2019-06-27T05:40:13.852Z,61.74
2019-06-27T05:41:13.869Z,63.45
2019-06-27T05:42:13.841Z,63.45
2019-06-27T05:43:13.835Z,63.48
2019-06-27T05:44:13.956Z,63.89
2019-06-27T05:45:13.815Z,63.99
2019-06-27T05:46:13.853Z,63.35
2019-06-27T05:47:13.813Z,63.25
2019-06-27T05:48:13.768Z,62.92
2019-06-27T05:49:13.783Z,61.91
2019-06-27T05:50:13.749Z,62.12
2019-06-27T05:51:13.741Z,61.82
2019-06-27T05:52:13.745Z,61.91
2019-06-27T05:53:13.732Z,62.32
2019-06-27T05:54:13.704Z,61.91
2019-06-27T05:55:13.703Z,61.91
2019-06-27T05:56:13.683Z,61.91
2019-06-27T05:57:13.689Z,61.58
2019-06-27T05:58:13.661Z,61.41
2019-06-27T05:59:13.665Z,61.91
2019-06-27T06:00:27.658Z,61.41
2019-06-27T06:01:13.643Z,61.69
2019-06-27T06:02:13.672Z,60.98
2019-06-27T06:03:13.607Z,60.68
2019-06-27T06:04:13.603Z,60.28
2019-06-27T06:05:13.592Z,60.08
2019-06-27T06:06:13.582Z,60.68
2019-06-27T06:07:13.588Z,60.88
2019-06-27T06:08:13.595Z,60.51
2019-06-27T06:09:13.546Z,60.21
2019-06-27T06:10:13.551Z,61.01
2019-06-27T06:11:13.518Z,61.21
2019-06-27T06:12:13.521Z,61.61
2019-06-27T06:13:13.526Z,60.91
2019-06-27T06:14:13.488Z,61.51
2019-06-27T06:15:13.475Z,61.38
2019-06-27T06:16:13.476Z,60.85
2019-06-27T06:17:13.469Z,60.96
2019-06-27T06:18:13.507Z,59.34
2019-06-27T06:19:13.434Z,59.85
2019-06-27T06:20:13.435Z,60.15
2019-06-27T06:21:13.414Z,60.05
2019-06-27T06:22:13.416Z,60.05
2019-06-27T06:23:13.389Z,58.75
2019-06-27T06:24:13.422Z,59.85
2019-06-27T06:25:13.373Z,59.34
2019-06-27T06:26:13.408Z,58.92
2019-06-27T06:27:13.349Z,59.12
2019-06-27T06:28:13.366Z,58.51
2019-06-27T06:29:13.369Z,58.79
2019-06-27T06:30:13.328Z,58.89
2019-06-27T06:31:13.313Z,58.49
2019-06-27T06:32:13.359Z,57.71
2019-06-27T06:33:13.287Z,59.14
2019-06-27T06:34:13.327Z,59.65
2019-06-27T06:35:13.265Z,59.55
2019-06-27T06:36:13.319Z,60.45
2019-06-27T06:37:13.248Z,60.25
2019-06-27T06:38:13.239Z,60.05
2019-06-27T06:39:13.221Z,60.52
2019-06-27T06:40:13.233Z,60.22
2019-06-27T06:41:13.203Z,60.12
2019-06-27T06:42:13.212Z,58.72
2019-06-27T06:43:13.178Z,58.62
2019-06-27T06:44:13.189Z,58.01
2019-06-27T06:45:13.198Z,58.79
2019-06-27T06:46:13.144Z,58.89
2019-06-27T06:47:13.142Z,58.72
2019-06-27T06:48:13.135Z,59.12
2019-06-27T06:49:13.217Z,57.71
2019-06-27T06:50:13.166Z,59.12
2019-06-27T06:51:13.099Z,58.62
2019-06-27T06:52:13.083Z,58.51
2019-06-27T06:53:13.091Z,58.22
2019-06-27T06:54:13.086Z,59.14
2019-06-27T06:55:13.100Z,59.25
2019-06-27T06:56:13.061Z,59.32
2019-06-27T06:57:13.039Z,58.01
2019-06-27T06:58:13.056Z,58.72
2019-06-27T06:59:13.015Z,56.71
2019-06-27T07:00:12.995Z,57.11
2019-06-27T07:01:13.027Z,57.48
2019-06-27T07:02:12.978Z,56.58
2019-06-27T07:03:12.978Z,56.38
2019-06-27T07:04:12.956Z,56.08
2019-06-27T07:05:12.948Z,55.68
2019-06-27T07:06:12.974Z,56.28
2019-06-27T07:07:13.357Z,57.06
2019-06-27T07:08:12.909Z,56.15
2019-06-27T07:09:12.914Z,56.13
2019-06-27T07:10:12.904Z,56.33
2019-06-27T07:11:12.890Z,55.73
2019-06-27T07:12:12.901Z,54.65
2019-06-27T07:13:12.851Z,54.45
2019-06-27T07:14:12.856Z,54.75
2019-06-27T07:15:12.837Z,55.35
2019-06-27T07:16:12.899Z,54.05
2019-06-27T07:17:12.846Z,54.35
2019-06-27T07:18:12.803Z,54.85
2019-06-27T07:19:12.800Z,53.95
2019-06-27T07:20:12.790Z,55.05
2019-06-27T07:21:12.769Z,54.25
2019-06-27T07:22:12.832Z,54.85
2019-06-27T07:23:12.774Z,54.75
2019-06-27T07:24:12.763Z,54.45
2019-06-27T07:25:12.735Z,54.17
2019-06-27T07:26:12.744Z,55.75
2019-06-27T07:27:12.709Z,55.98
2019-06-27T07:28:12.722Z,55.75
2019-06-27T07:29:12.681Z,55.93
2019-06-27T07:30:12.669Z,56.02
2019-06-27T07:31:17.770Z,54.30
2019-06-27T07:32:12.672Z,54.30
2019-06-27T07:33:12.677Z,54.10
2019-06-27T07:34:12.643Z,54.20
2019-06-27T07:35:12.643Z,54.80
2019-06-27T07:36:12.616Z,54.30
2019-06-27T07:37:12.601Z,55.00
2019-06-27T07:38:12.635Z,55.00
2019-06-27T07:39:12.578Z,54.39
2019-06-27T07:40:12.579Z,54.10
2019-06-27T07:41:12.580Z,54.20
2019-06-27T07:42:12.558Z,54.20
2019-06-27T07:43:12.558Z,54.50
2019-06-27T07:44:13.171Z,54.10
2019-06-27T07:45:12.515Z,55.30
2019-06-27T07:46:24.674Z,53.50
2019-06-27T07:47:12.493Z,53.89
2019-06-27T07:48:12.491Z,54.12
2019-06-27T07:49:12.496Z,54.30
2019-06-27T07:50:12.453Z,54.60
2019-06-27T07:51:12.453Z,54.10
2019-06-27T07:52:12.450Z,52.29
2019-06-27T07:53:12.422Z,52.77
2019-06-27T07:54:12.477Z,52.77
2019-06-27T07:55:12.410Z,52.17
2019-06-27T07:56:12.389Z,52.17
2019-06-27T07:57:12.395Z,51.77
2019-06-27T07:58:12.391Z,52.17
2019-06-27T07:59:12.359Z,52.67
2019-06-27T08:00:12.366Z,52.47
2019-06-27T08:01:12.354Z,52.64
2019-06-27T08:02:15.996Z,52.44
2019-06-27T08:03:12.330Z,52.74
2019-06-27T08:04:12.301Z,53.14
2019-06-27T08:05:12.354Z,52.92
2019-06-27T08:06:12.290Z,53.52
2019-06-27T08:07:12.311Z,53.05
2019-06-27T08:08:12.261Z,52.22
2019-06-27T08:09:12.255Z,53.82
2019-06-27T08:10:12.287Z,53.30
2019-06-27T08:11:12.228Z,53.59
2019-06-27T08:12:12.222Z,52.29
2019-06-27T08:13:12.202Z,52.09
2019-06-27T08:14:12.202Z,52.59
2019-06-27T08:15:12.208Z,52.89
2019-06-27T08:16:12.205Z,52.69
2019-06-27T08:17:12.160Z,53.30
2019-06-27T08:18:12.166Z,52.99
2019-06-27T08:19:12.141Z,53.49
2019-06-27T08:20:12.140Z,53.37
2019-06-27T08:21:12.145Z,53.17
2019-06-27T08:22:12.106Z,52.27
2019-06-27T08:23:12.113Z,51.57
2019-06-27T08:24:12.104Z,51.97
2019-06-27T08:25:12.072Z,51.04
2019-06-27T08:26:12.123Z,50.87
2019-06-27T08:27:12.051Z,51.37
2019-06-27T08:28:12.045Z,51.77
2019-06-27T08:29:12.066Z,51.54
2019-06-27T08:30:12.032Z,50.65
2019-06-27T08:31:12.006Z,51.17
2019-06-27T08:32:12.017Z,49.57
2019-06-27T08:33:11.987Z,50.45
2019-06-27T08:34:11.978Z,49.85
2019-06-27T08:35:11.977Z,48.85
2019-06-27T08:36:11.956Z,47.45
2019-06-27T08:37:11.975Z,49.07
2019-06-27T08:38:11.957Z,48.75
2019-06-27T08:39:11.969Z,48.94
2019-06-27T08:40:11.915Z,46.65
2019-06-27T08:41:14.081Z,45.13
2019-06-27T08:42:11.930Z,45.75
2019-06-27T08:43:11.905Z,45.63
2019-06-27T08:44:11.896Z,45.63
2019-06-27T08:45:11.856Z,46.03
2019-06-27T08:46:12.002Z,46.33
2019-06-27T08:47:11.859Z,45.53
2019-06-27T08:48:11.847Z,46.70
2019-06-27T08:49:11.818Z,46.01
2019-06-27T08:50:11.814Z,45.81
2019-06-27T08:51:11.797Z,45.40
2019-06-27T08:52:11.795Z,45.51
2019-06-27T08:53:11.790Z,45.21
2019-06-27T08:54:11.795Z,45.29
2019-06-27T08:55:11.757Z,44.09
2019-06-27T08:56:11.732Z,43.31
2019-06-27T08:57:11.769Z,44.31
2019-06-27T08:58:11.779Z,44.09
2019-06-27T08:59:11.702Z,44.59
2019-06-27T09:00:11.698Z,44.59
2019-06-27T09:01:11.695Z,45.86
2019-06-27T09:02:11.674Z,45.96
2019-06-27T09:03:11.670Z,45.26
2019-06-27T09:04:11.717Z,45.56
2019-06-27T09:05:11.643Z,44.17
2019-06-27T09:06:11.650Z,44.89
2019-06-27T09:07:11.643Z,45.29
2019-06-27T09:08:11.608Z,46.96
2019-06-27T09:09:11.629Z,45.76
2019-06-27T09:10:11.591Z,44.96
2019-06-27T09:11:11.575Z,45.04
2019-06-27T09:12:11.761Z,44.84
2019-06-27T09:13:11.551Z,44.45
2019-06-27T09:14:11.591Z,44.54
2019-06-27T09:15:11.545Z,44.74
2019-06-27T09:16:11.529Z,44.84
2019-06-27T09:17:11.521Z,43.63
2019-06-27T09:18:11.512Z,43.82
2019-06-27T09:19:11.569Z,41.44
2019-06-27T09:20:11.527Z,42.53
2019-06-27T09:21:11.484Z,42.63
2019-06-27T09:22:11.451Z,42.03
2019-06-27T09:23:11.505Z,42.63
2019-06-27T09:24:11.448Z,43.43
2019-06-27T09:25:11.463Z,42.93
2019-06-27T09:26:11.413Z,44.40
2019-06-27T09:27:11.409Z,44.80
2019-06-27T09:28:11.390Z,44.10
2019-06-27T09:29:11.394Z,44.40
2019-06-27T09:30:11.492Z,44.98
2019-06-27T09:31:11.405Z,42.59
2019-06-27T09:32:24.875Z,41.89
2019-06-27T09:33:12.334Z,41.22
2019-06-27T09:34:11.384Z,42.11
2019-06-27T09:35:11.327Z,42.13
2019-06-27T09:36:11.361Z,43.23
2019-06-27T09:37:11.296Z,43.82
2019-06-27T09:38:11.292Z,43.51
2019-06-27T09:39:11.304Z,41.61
2019-06-27T09:40:11.270Z,42.01
2019-06-27T09:41:11.274Z,41.31
2019-06-27T09:42:11.237Z,40.52
2019-06-27T09:43:11.224Z,41.61
2019-06-27T09:44:11.214Z,41.61
2019-06-27T09:45:11.251Z,42.71
2019-06-27T09:46:11.249Z,41.69
2019-06-27T09:47:11.190Z,40.90
2019-06-27T09:48:11.173Z,41.60
2019-06-27T09:49:11.162Z,41.79
2019-06-27T09:50:11.150Z,40.50
2019-06-27T09:51:11.152Z,41.60
2019-06-27T09:52:11.160Z,41.60
2019-06-27T09:53:11.140Z,41.09
2019-06-27T09:54:11.108Z,40.60
2019-06-27T09:55:11.108Z,39.69
2019-06-27T09:56:11.086Z,39.39
2019-06-27T09:57:11.099Z,40.40
2019-06-27T09:58:11.074Z,39.69
2019-06-27T09:59:11.107Z,39.31
2019-06-27T10:00:11.055Z,40.28
2019-06-27T10:01:11.041Z,39.39
2019-06-27T10:02:11.097Z,40.00
2019-06-27T10:03:11.015Z,39.78
2019-06-27T10:04:11.009Z,39.29
2019-06-27T10:05:11.022Z,38.49
2019-06-27T10:06:10.983Z,37.99
2019-06-27T10:07:10.983Z,38.59
2019-06-27T10:08:10.995Z,37.90
2019-06-27T10:09:10.950Z,37.79
2019-06-27T10:10:11.001Z,37.90
2019-06-27T10:11:10.942Z,36.50
2019-06-27T10:12:10.956Z,36.62
2019-06-27T10:13:10.904Z,36.72
2019-06-27T10:14:10.905Z,37.12
2019-06-27T10:15:10.909Z,37.02
2019-06-27T10:16:10.899Z,37.02
2019-06-27T10:17:10.904Z,38.01
2019-06-27T10:18:10.854Z,37.41
2019-06-27T10:19:10.839Z,37.90
2019-06-27T10:20:10.842Z,36.90
2019-06-27T10:21:10.911Z,36.90
2019-06-27T10:22:10.831Z,36.19
2019-06-27T10:23:10.793Z,36.58
2019-06-27T10:24:10.787Z,35.89
2019-06-27T10:25:10.773Z,36.98
2019-06-27T10:26:10.817Z,35.89
2019-06-27T10:27:10.771Z,37.77
2019-06-27T10:28:10.759Z,36.88
2019-06-27T10:29:10.731Z,37.20
2019-06-27T10:30:10.729Z,37.60
2019-06-27T10:31:10.735Z,37.18
2019-06-27T10:32:10.736Z,38.67
2019-06-27T10:33:10.699Z,38.87
2019-06-27T10:34:10.700Z,37.18
2019-06-27T10:35:10.671Z,38.87
2019-06-27T10:36:10.667Z,38.57
2019-06-27T10:37:11.591Z,39.07
2019-06-27T10:38:10.634Z,38.85
2019-06-27T10:39:10.638Z,37.26
2019-06-27T10:40:10.626Z,37.76
2019-06-27T10:41:10.606Z,38.73
2019-06-27T10:42:10.624Z,39.03
2019-06-27T10:43:10.594Z,38.64
2019-06-27T10:44:10.577Z,38.64
2019-06-27T10:45:10.575Z,38.83
2019-06-27T10:46:10.598Z,38.42
2019-06-27T10:47:10.555Z,38.32
2019-06-27T10:48:10.525Z,38.71
2019-06-27T10:49:10.529Z,37.45
2019-06-27T10:50:10.506Z,37.94
2019-06-27T10:51:10.548Z,37.96
2019-06-27T10:52:10.483Z,37.46
2019-06-27T10:53:10.480Z,37.76
2019-06-27T10:54:10.467Z,37.24
2019-06-27T10:55:10.471Z,35.75
2019-06-27T10:56:10.445Z,35.06
2019-06-27T10:57:10.451Z,35.06
2019-06-27T10:58:10.424Z,35.55
2019-06-27T10:59:10.414Z,35.24
2019-06-27T11:00:10.431Z,35.66
2019-06-27T11:01:10.400Z,35.83
2019-06-27T11:02:10.421Z,37.52
2019-06-27T11:03:15.455Z,36.33
2019-06-27T11:04:11.355Z,36.04
2019-06-27T11:05:10.380Z,36.83
2019-06-27T11:06:10.338Z,37.32
2019-06-27T11:07:10.378Z,37.03
2019-06-27T11:08:10.322Z,37.24
2019-06-27T11:09:10.319Z,36.94
2019-06-27T11:10:10.302Z,36.94
2019-06-27T11:11:10.278Z,37.64
2019-06-27T11:12:10.273Z,36.25
2019-06-27T11:13:10.290Z,36.77
2019-06-27T11:14:10.267Z,37.24
2019-06-27T11:15:10.251Z,37.76
2019-06-27T11:16:10.242Z,37.16
2019-06-27T11:17:10.251Z,38.85
2019-06-27T11:18:10.214Z,39.43
2019-06-27T11:19:10.203Z,39.43
2019-06-27T11:20:10.204Z,39.45
2019-06-27T11:21:13.795Z,38.83
2019-06-27T11:22:10.554Z,39.43
2019-06-27T11:23:10.160Z,40.62
2019-06-27T11:24:10.159Z,39.01
2019-06-27T11:25:10.134Z,37.03
2019-06-27T11:26:10.200Z,36.83
2019-06-27T11:27:10.174Z,36.43
2019-06-27T11:28:10.421Z,35.44
2019-06-27T11:29:10.112Z,36.22
2019-06-27T11:30:10.090Z,35.13
2019-06-27T11:31:10.073Z,33.83
2019-06-27T11:32:10.096Z,34.84
2019-06-27T11:33:10.090Z,34.84
2019-06-27T11:34:10.089Z,34.53
2019-06-27T11:35:10.025Z,33.73
2019-06-27T11:36:10.014Z,33.34
2019-06-27T11:37:10.011Z,32.75
2019-06-27T11:38:10.017Z,33.15
2019-06-27T11:39:10.019Z,33.14
2019-06-27T11:40:12.218Z,33.55
2019-06-27T11:41:09.959Z,34.74
2019-06-27T11:42:09.945Z,34.34
2019-06-27T11:43:09.994Z,34.64
2019-06-27T11:44:09.962Z,34.94
2019-06-27T11:45:09.922Z,34.53
2019-06-27T11:46:09.908Z,34.43
2019-06-27T11:47:09.907Z,34.63
2019-06-27T11:48:09.888Z,35.52
2019-06-27T11:49:09.890Z,35.42
2019-06-27T11:50:10.050Z,35.71
2019-06-27T11:51:09.857Z,34.63
2019-06-27T11:52:09.843Z,34.43
2019-06-27T11:53:09.846Z,33.24
2019-06-27T11:54:09.850Z,32.94
2019-06-27T11:55:09.815Z,33.54
2019-06-27T11:56:09.802Z,31.55
2019-06-27T11:57:09.797Z,31.26
2019-06-27T11:58:09.777Z,31.07
2019-06-27T11:59:09.809Z,31.77
2019-06-27T12:00:09.757Z,31.37
2019-06-27T12:01:09.751Z,31.77
2019-06-27T12:02:09.746Z,32.54
2019-06-27T12:03:09.776Z,32.06
2019-06-27T12:04:09.712Z,31.77
2019-06-27T12:05:09.700Z,32.15
2019-06-27T12:06:09.705Z,32.96
2019-06-27T12:07:09.719Z,32.94
2019-06-27T12:08:11.045Z,32.84
2019-06-27T12:09:09.661Z,32.75
2019-06-27T12:10:09.647Z,32.24
2019-06-27T12:11:09.638Z,32.94
2019-06-27T12:12:09.634Z,33.54
2019-06-27T12:13:09.650Z,33.54
2019-06-27T12:14:09.607Z,33.04
2019-06-27T12:15:09.603Z,32.75
2019-06-27T12:16:09.586Z,32.84
2019-06-27T12:17:09.580Z,33.44
2019-06-27T12:18:09.584Z,34.03
2019-06-27T12:19:09.573Z,31.84
2019-06-27T12:20:09.547Z,32.73
2019-06-27T12:21:09.532Z,32.03
2019-06-27T12:22:09.531Z,32.53
2019-06-27T12:23:09.564Z,32.43
2019-06-27T12:24:09.517Z,32.71
2019-06-27T12:25:09.487Z,32.43
2019-06-27T12:26:09.492Z,31.82
2019-06-27T12:27:09.467Z,31.62
2019-06-27T12:28:09.460Z,31.52
2019-06-27T12:29:09.531Z,31.92
2019-06-27T12:30:09.516Z,31.23
2019-06-27T12:31:19.918Z,30.43
2019-06-27T12:32:09.429Z,30.93
2019-06-27T12:33:09.404Z,30.65
2019-06-27T12:34:09.409Z,31.23
2019-06-27T12:35:09.385Z,29.54
2019-06-27T12:36:09.377Z,30.93
2019-06-27T12:37:09.391Z,31.02
2019-06-27T12:38:09.367Z,30.93
2019-06-27T12:39:09.336Z,29.74
2019-06-27T12:40:09.338Z,29.34
2019-06-27T12:41:09.329Z,27.36
2019-06-27T12:42:09.312Z,28.56
2019-06-27T12:43:09.330Z,28.96
2019-06-27T12:44:09.283Z,30.35
2019-06-27T12:45:09.271Z,29.95
2019-06-27T12:46:09.262Z,29.95
2019-06-27T12:47:09.257Z,29.64
2019-06-27T12:48:09.293Z,30.05
2019-06-27T12:49:09.240Z,30.04
2019-06-27T12:50:09.239Z,30.04
2019-06-27T12:51:09.249Z,29.44
2019-06-27T12:52:09.201Z,30.15